Time;durP1;ratioP1;P1;durP2;ratioP2;P2;SDS_P1;SDS_P2;PMS_P1;PMS_P2;Temp;Humidity;BMP_temperature;BMP_pressure;BME280_temperature;BME280_humidity;BME280_pressure;Samples;Min_cycle;Max_cycle;Signal;HPM_P1;HPM_P2
2022/11/18 00:01:05;;;;;;;;;;;;;;;;;;5073269;28;981;-78
2022/11/18 00:03:31;;;;;;;;;;;;;;;;;;5072687;28;1107;-78
2022/11/18 00:05:57;;;;;;;;;;;;;;;;;;5071639;28;1356;-78
2022/11/18 00:08:24;;;;;;;;;;;;;;;;;;5073780;28;1910;-77
2022/11/18 00:10:52;;;;;;;;;;;;;;;;;;5075338;28;862;-78
2022/11/18 00:16:03;;;;;;;;;;;;;;;;;;5072927;28;1345;-78
2022/11/18 00:18:29;;;;;;;;;;;;;;;;;;5072310;28;1056;-78
2022/11/18 00:20:56;;;;;;;;;;;;;;;;;;5071700;28;1124;-78
2022/11/18 00:23:22;;;;;;;;;;;;;;;;;;5069669;28;1111;-78
2022/11/18 00:25:48;;;;;;;;;;;;;;;;;;5069231;28;1330;-78
2022/11/18 00:28:15;;;;;;;;;;;;;;;;;;5069533;28;1910;-78
2022/11/18 00:30:42;;;;;;;;;;;;;;;;;;5069174;28;987;-77
2022/11/18 00:33:08;;;;;;;;;;;;;;;;;;5068127;28;1098;-78
2022/11/18 00:35:34;;;;;;;;;;;;;;;;;;5068445;28;1302;-78
2022/11/18 00:38:00;;;;;;;;;;;;;;;;;;5068337;28;1064;-78
2022/11/18 00:40:27;;;;;;;;;;;;;;;;;;5068613;28;1083;-78
2022/11/18 00:42:52;;;;;;;;;;;;;;;;;;5067650;28;1076;-78
2022/11/18 00:45:20;;;;;;;;;;;;;;;;;;5066655;28;1316;-78
2022/11/18 00:47:46;;;;;;;;;;;;;;;;;;5067804;28;1906;-79
2022/11/18 00:50:12;;;;;;;;;;;;;;;;;;5070541;28;1052;-78
2022/11/18 00:52:39;;;;;;;;;;;;;;;;;;5066484;28;762;-77
2022/11/18 00:55:05;;;;;;;;;;;;;;;;;;5068793;28;1357;-78
2022/11/18 00:57:31;;;;;;;;;;;;;;;;;;5068512;28;766;-78
2022/11/18 00:59:57;;;;;;;;;;;;;;;;;;5067767;28;1083;-77
2022/11/18 01:02:25;;;;;;;;;;;;;;;;;;5066566;28;1056;-77
2022/11/18 01:04:51;;;;;;;;;;;;;;;;;;5066878;28;1347;-77
2022/11/18 01:07:17;;;;;;;;;;;;;;;;;;5068727;28;727;-77
2022/11/18 01:09:44;;;;;;;;;;;;;;;;;;5072421;28;1922;-78
2022/11/18 01:14:54;;;;;;;;;;;;;;;;;;5075094;28;1380;-77
2022/11/18 01:17:20;;;;;;;;;;;;;;;;;;5072906;28;1243;-78
2022/11/18 01:19:48;;;;;;;;;;;;;;;;;;5071594;28;1198;-77
2022/11/18 01:22:14;;;;;;;;;;;;;;;;;;5071823;28;978;-77
2022/11/18 01:24:40;;;;;;;;;;;;;;;;;;5072962;28;1254;-76
2022/11/18 01:27:06;;;;;;;;;;;;;;;;;;5073507;28;1020;-79
2022/11/18 01:29:33;;;;;;;;;;;;;;;;;;5070485;28;1914;-77
2022/11/18 01:31:59;;;;;;;;;;;;;;;;;;5068103;28;1122;-78
2022/11/18 01:34:27;;;;;;;;;;;;;;;;;;5068187;28;1178;-76
2022/11/18 01:36:55;;;;;;;;;;;;;;;;;;5067604;28;1274;-77
2022/11/18 01:39:21;;;;;;;;;;;;;;;;;;5067160;28;914;-77
2022/11/18 01:41:47;;;;;;;;;;;;;;;;;;5066111;28;1063;-77
2022/11/18 01:44:29;;;;;;;;;;;;;;;;;;5065172;28;1191;-77
2022/11/18 01:46:55;;;;;;;;;;;;;;;;;;5053960;28;1432;-76
2022/11/18 01:49:21;;;;;;;;;;;;;;;;;;5066946;28;1967;-77
2022/11/18 01:51:48;;;;;;;;;;;;;;;;;;5071282;28;1102;-77
2022/11/18 01:54:16;;;;;;;;;;;;;;;;;;5084832;28;1972;-77
2022/11/18 01:56:43;;;;;;;;;;;;;;;;;;5085749;28;1888;-77
2022/11/18 01:59:10;;;;;;;;;;;;;;;;;;5077348;28;1659;-76
2022/11/18 02:01:37;;;;;;;;;;;;;;;;;;5066287;28;1116;-77
2022/11/18 02:04:03;;;;;;;;;;;;;;;;;;5066735;28;1055;-77
2022/11/18 02:06:29;;;;;;;;;;;;;;;;;;5066657;28;1301;-76
2022/11/18 02:08:56;;;;;;;;;;;;;;;;;;5066146;28;1910;-77
2022/11/18 02:14:08;;;;;;;;;;;;;;;;;;5073377;28;1197;-77
2022/11/18 02:16:37;;;;;;;;;;;;;;;;;;5073512;28;1338;-77
2022/11/18 02:19:04;;;;;;;;;;;;;;;;;;5072519;28;1048;-77
2022/11/18 02:21:34;;;;;;;;;;;;;;;;;;5076827;28;1025;-77
2022/11/18 02:24:33;;;;;;;;;;;;;;;;;;5077324;28;1051;-77
2022/11/18 02:27:17;;;;;;;;;;;;;;;;;;5054157;28;830;-78
2022/11/18 02:29:45;;;;;;;;;;;;;;;;;;5028794;28;2406;-77
2022/11/18 02:32:12;;;;;;;;;;;;;;;;;;5052768;28;1033;-77
2022/11/18 02:34:40;;;;;;;;;;;;;;;;;;5072921;28;1302;-77
2022/11/18 02:37:07;;;;;;;;;;;;;;;;;;5071387;28;1282;-77
2022/11/18 02:39:34;;;;;;;;;;;;;;;;;;5074606;28;775;-77
2022/11/18 02:42:00;;;;;;;;;;;;;;;;;;5077649;28;754;-77
2022/11/18 02:44:27;;;;;;;;;;;;;;;;;;5077145;28;1167;-77
2022/11/18 02:46:55;;;;;;;;;;;;;;;;;;5077926;28;1273;-78
2022/11/18 02:49:21;;;;;;;;;;;;;;;;;;5076966;28;1981;-77
2022/11/18 02:51:48;;;;;;;;;;;;;;;;;;5089752;28;1928;-75
2022/11/18 02:54:14;;;;;;;;;;;;;;;;;;5092215;28;1760;-77
2022/11/18 02:56:40;;;;;;;;;;;;;;;;;;5082001;28;1813;-78
2022/11/18 02:59:07;;;;;;;;;;;;;;;;;;5077208;28;1088;-77
2022/11/18 03:01:33;;;;;;;;;;;;;;;;;;5076662;28;1047;-77
2022/11/18 03:04:01;;;;;;;;;;;;;;;;;;5076955;28;1047;-77
2022/11/18 03:06:29;;;;;;;;;;;;;;;;;;5077189;28;1436;-77
2022/11/18 03:08:57;;;;;;;;;;;;;;;;;;5072838;28;1906;-78
2022/11/18 03:11:24;;;;;;;;;;;;;;;;;;5075165;28;1040;-77
2022/11/18 03:13:55;;;;;;;;;;;;;;;;;;5076725;28;1107;-77
2022/11/18 03:16:22;;;;;;;;;;;;;;;;;;5077188;28;1310;-77
2022/11/18 03:18:51;;;;;;;;;;;;;;;;;;5075613;28;1170;-77
2022/11/18 03:21:19;;;;;;;;;;;;;;;;;;5074243;28;758;-76
2022/11/18 03:23:47;;;;;;;;;;;;;;;;;;5071531;28;1216;-77
2022/11/18 03:26:15;;;;;;;;;;;;;;;;;;5072291;28;1286;-77
2022/11/18 03:28:42;;;;;;;;;;;;;;;;;;5072710;28;1985;-76
2022/11/18 03:31:10;;;;;;;;;;;;;;;;;;5073540;28;850;-77
2022/11/18 03:33:37;;;;;;;;;;;;;;;;;;5070407;28;1150;-77
2022/11/18 03:36:05;;;;;;;;;;;;;;;;;;5072900;28;1309;-77
2022/11/18 03:38:34;;;;;;;;;;;;;;;;;;5071652;28;1158;-78
2022/11/18 03:41:01;;;;;;;;;;;;;;;;;;5072132;28;1060;-77
2022/11/18 03:43:28;;;;;;;;;;;;;;;;;;5071977;28;1275;-77
2022/11/18 03:45:56;;;;;;;;;;;;;;;;;;5073492;28;1305;-77
2022/11/18 03:48:23;;;;;;;;;;;;;;;;;;5072566;28;1276;-78
2022/11/18 03:50:50;;;;;;;;;;;;;;;;;;5074651;28;1926;-77
2022/11/18 03:53:17;;;;;;;;;;;;;;;;;;5072843;28;937;-77
2022/11/18 03:55:47;;;;;;;;;;;;;;;;;;5073324;28;1400;-77
2022/11/18 03:58:15;;;;;;;;;;;;;;;;;;5078117;22;2614;-73
2022/11/18 04:00:42;;;;;;;;;;;;;;;;;;5052096;28;1515;-74
2022/11/18 04:03:08;;;;;;;;;;;;;;;;;;5052589;28;611;-72
2022/11/18 04:05:36;;;;;;;;;;;;;;;;;;5051837;28;1067;-73
2022/11/18 04:08:03;;;;;;;;;;;;;;;;;;5052885;28;1421;-74
2022/11/18 04:10:29;;;;;;;;;;;;;;;;;;5053092;28;1918;-73
2022/11/18 04:12:59;;;;;;;;;;;;;;;;;;5051121;28;1451;-73
2022/11/18 04:15:25;;;;;;;;;;;;;;;;;;5051561;28;1095;-73
2022/11/18 04:17:51;;;;;;;;;;;;;;;;;;5051774;28;1326;-74
2022/11/18 04:20:18;;;;;;;;;;;;;;;;;;5052922;28;1048;-74
2022/11/18 04:22:44;;;;;;;;;;;;;;;;;;5052015;28;1047;-74
2022/11/18 04:25:11;;;;;;;;;;;;;;;;;;5053014;28;1059;-74
2022/11/18 04:27:37;;;;;;;;;;;;;;;;;;5052550;28;1391;-74
2022/11/18 04:30:05;;;;;;;;;;;;;;;;;;5052764;28;1914;-74
2022/11/18 04:32:32;;;;;;;;;;;;;;;;;;5052281;28;866;-74
2022/11/18 04:34:58;;;;;;;;;;;;;;;;;;5053064;28;1503;-73
2022/11/18 04:37:24;;;;;;;;;;;;;;;;;;5055490;28;1306;-73
2022/11/18 04:39:50;;;;;;;;;;;;;;;;;;5056311;28;1004;-74
2022/11/18 04:42:16;;;;;;;;;;;;;;;;;;5052134;28;933;-73
2022/11/18 04:44:43;;;;;;;;;;;;;;;;;;5051951;28;1392;-73
2022/11/18 04:47:10;;;;;;;;;;;;;;;;;;5052088;28;1383;-74
2022/11/18 04:49:37;;;;;;;;;;;;;;;;;;5050838;28;1926;-74
2022/11/18 04:52:03;;;;;;;;;;;;;;;;;;5051148;28;993;-74
2022/11/18 04:54:29;;;;;;;;;;;;;;;;;;5051891;28;1131;-74
2022/11/18 04:56:56;;;;;;;;;;;;;;;;;;5052003;28;1438;-74
2022/11/18 04:59:23;;;;;;;;;;;;;;;;;;5050093;28;1345;-75
2022/11/18 05:01:49;;;;;;;;;;;;;;;;;;5044198;28;1640;-75
2022/11/18 05:04:18;;;;;;;;;;;;;;;;;;5038888;28;1375;-74
2022/11/18 05:06:44;;;;;;;;;;;;;;;;;;5038564;28;1391;-73
2022/11/18 05:09:11;;;;;;;;;;;;;;;;;;4979202;28;1938;-74
2022/11/18 05:14:18;;;;;;;;;;;;;;;;;;4985320;28;1273;-73
2022/11/18 05:16:44;;;;;;;;;;;;;;;;;;4985432;28;874;-73
2022/11/18 05:19:11;;;;;;;;;;;;;;;;;;4979403;28;1516;-74
2022/11/18 05:21:39;;;;;;;;;;;;;;;;;;4983470;28;862;-73
2022/11/18 05:24:05;;;;;;;;;;;;;;;;;;4975561;28;898;-74
2022/11/18 05:26:32;;;;;;;;;;;;;;;;;;4974784;28;1558;-74
2022/11/18 05:28:58;;;;;;;;;;;;;;;;;;4976794;28;1908;-72
2022/11/18 05:31:25;;;;;;;;;;;;;;;;;;4977276;28;1177;-74
2022/11/18 05:33:51;;;;;;;;;;;;;;;;;;4981953;28;905;-74
2022/11/18 05:36:18;;;;;;;;;;;;;;;;;;4982911;28;909;-74
2022/11/18 05:38:46;;;;;;;;;;;;;;;;;;5018093;28;1288;-75
2022/11/18 05:43:09;;;;;;;;;;;;;;;;;;4997126;28;984;-74
2022/11/18 05:43:59;;;;;;;;;;;;;;;;;;4980815;28;1896;-74
2022/11/18 05:46:25;;;;;;;;;;;;;;;;;;4974351;28;818;-74
2022/11/18 05:48:52;;;;;;;;;;;;;;;;;;4980877;28;1504;-74
2022/11/18 05:51:19;;;;;;;;;;;;;;;;;;4981093;28;1929;-73
2022/11/18 05:53:47;;;;;;;;;;;;;;;;;;4975316;28;1074;-75
2022/11/18 05:56:16;;;;;;;;;;;;;;;;;;4982203;28;980;-74
2022/11/18 05:58:42;;;;;;;;;;;;;;;;;;4976319;28;1298;-75
2022/11/18 06:01:09;;;;;;;;;;;;;;;;;;4961877;28;1109;-74
2022/11/18 06:03:36;;;;;;;;;;;;;;;;;;4967770;28;973;-74
2022/11/18 06:06:03;;;;;;;;;;;;;;;;;;4997851;28;1355;-74
2022/11/18 06:08:30;;;;;;;;;;;;;;;;;;5047911;28;1287;-75
2022/11/18 06:10:58;;;;;;;;;;;;;;;;;;5049539;28;1918;-73
2022/11/18 06:13:25;;;;;;;;;;;;;;;;;;5049657;28;1263;-75
2022/11/18 06:15:52;;;;;;;;;;;;;;;;;;5046246;28;1269;-75
2022/11/18 06:18:19;;;;;;;;;;;;;;;;;;5024263;28;1421;-72
2022/11/18 06:20:51;;;;;;;;;;;;;;;;;;5031819;28;961;-73
2022/11/18 06:23:17;;;;;;;;;;;;;;;;;;5029553;28;1106;-72
2022/11/18 06:25:43;;;;;;;;;;;;;;;;;;5037227;28;1377;-75
2022/11/18 06:28:11;;;;;;;;;;;;;;;;;;5050690;28;1317;-75
2022/11/18 06:30:38;;;;;;;;;;;;;;;;;;5050144;28;1918;-74
2022/11/18 06:33:04;;;;;;;;;;;;;;;;;;5049960;28;1258;-73
2022/11/18 06:35:30;;;;;;;;;;;;;;;;;;5043767;28;1463;-74
2022/11/18 06:37:56;;;;;;;;;;;;;;;;;;5043345;28;1328;-74
2022/11/18 06:40:23;;;;;;;;;;;;;;;;;;5047876;28;1397;-75
2022/11/18 06:45:34;;;;;;;;;;;;;;;;;;5042582;28;1110;-75
2022/11/18 06:48:00;;;;;;;;;;;;;;;;;;5045491;28;1272;-75
2022/11/18 06:50:26;;;;;;;;;;;;;;;;;;5049506;28;1914;-76
2022/11/18 06:52:53;;;;;;;;;;;;;;;;;;5043757;28;1403;-75
2022/11/18 06:55:19;;;;;;;;;;;;;;;;;;5043373;28;1269;-74
2022/11/18 06:57:45;;;;;;;;;;;;;;;;;;5049539;28;1378;-75
2022/11/18 07:00:12;;;;;;;;;;;;;;;;;;5052623;28;1258;-75
2022/11/18 07:02:40;;;;;;;;;;;;;;;;;;5053914;28;1044;-74
2022/11/18 07:05:06;;;;;;;;;;;;;;;;;;5054940;28;815;-72
2022/11/18 07:07:34;;;;;;;;;;;;;;;;;;5054660;28;1422;-75
2022/11/18 07:10:00;;;;;;;;;;;;;;;;;;5053608;28;1914;-75
2022/11/18 07:12:26;;;;;;;;;;;;;;;;;;5054215;28;1247;-74
2022/11/18 07:14:52;;;;;;;;;;;;;;;;;;5053051;28;924;-74
2022/11/18 07:17:19;;;;;;;;;;;;;;;;;;5049369;28;1463;-75
2022/11/18 07:19:46;;;;;;;;;;;;;;;;;;5048906;28;1071;-76
2022/11/18 07:22:12;;;;;;;;;;;;;;;;;;5049177;28;937;-75
2022/11/18 07:24:39;;;;;;;;;;;;;;;;;;5040028;28;1496;-76
2022/11/18 07:27:05;;;;;;;;;;;;;;;;;;5049922;28;1394;-75
2022/11/18 07:29:32;;;;;;;;;;;;;;;;;;5053672;28;1059;-74
2022/11/18 07:31:58;;;;;;;;;;;;;;;;;;5050935;28;1922;-75
2022/11/18 07:34:24;;;;;;;;;;;;;;;;;;5045529;28;1403;-75
2022/11/18 07:36:52;;;;;;;;;;;;;;;;;;5051643;28;1581;-75
2022/11/18 07:39:18;;;;;;;;;;;;;;;;;;5045484;28;1382;-74
2022/11/18 07:41:44;;;;;;;;;;;;;;;;;;5052352;28;1538;-75
2022/11/18 07:44:12;;;;;;;;;;;;;;;;;;5052211;28;1419;-75
2022/11/18 07:46:39;;;;;;;;;;;;;;;;;;5048111;28;1419;-75
2022/11/18 07:49:06;;;;;;;;;;;;;;;;;;5051843;28;1354;-75
2022/11/18 07:51:33;;;;;;;;;;;;;;;;;;5050839;28;1906;-74
2022/11/18 07:54:00;;;;;;;;;;;;;;;;;;5051879;28;950;-74
2022/11/18 07:56:27;;;;;;;;;;;;;;;;;;5053212;28;1063;-75
2022/11/18 07:58:53;;;;;;;;;;;;;;;;;;5049778;28;1394;-75
2022/11/18 08:01:20;;;;;;;;;;;;;;;;;;5061338;28;1292;-74
2022/11/18 08:03:46;;;;;;;;;;;;;;;;;;5060598;28;1208;-74
2022/11/18 08:06:14;;;;;;;;;;;;;;;;;;5053308;28;1321;-73
2022/11/18 08:08:40;;;;;;;;;;;;;;;;;;5043109;28;1458;-73
2022/11/18 08:11:08;;;;;;;;;;;;;;;;;;5049064;28;1902;-74
2022/11/18 08:13:35;;;;;;;;;;;;;;;;;;5052065;28;1162;-74
2022/11/18 08:16:01;;;;;;;;;;;;;;;;;;5051334;28;1475;-74
2022/11/18 08:18:28;;;;;;;;;;;;;;;;;;5053442;28;1287;-74
2022/11/18 08:20:54;;;;;;;;;;;;;;;;;;5050607;28;1412;-75
2022/11/18 08:23:20;;;;;;;;;;;;;;;;;;5044459;28;1138;-75
2022/11/18 08:25:46;;;;;;;;;;;;;;;;;;5053249;28;1123;-76
2022/11/18 08:28:14;;;;;;;;;;;;;;;;;;5051130;28;1413;-75
2022/11/18 08:30:40;;;;;;;;;;;;;;;;;;5044243;28;1918;-75
2022/11/18 08:33:06;;;;;;;;;;;;;;;;;;5051895;28;1103;-76
2022/11/18 08:35:33;;;;;;;;;;;;;;;;;;5053133;28;1039;-76
2022/11/18 08:37:59;;;;;;;;;;;;;;;;;;5050279;28;1418;-76
2022/11/18 08:40:25;;;;;;;;;;;;;;;;;;5052927;28;1134;-76
2022/11/18 08:42:52;;;;;;;;;;;;;;;;;;5052809;28;1059;-75
2022/11/18 08:45:19;;;;;;;;;;;;;;;;;;5053858;28;1067;-77
2022/11/18 08:47:46;;;;;;;;;;;;;;;;;;5051648;28;1463;-76
2022/11/18 08:50:12;;;;;;;;;;;;;;;;;;5048965;28;1902;-75
2022/11/18 08:52:38;;;;;;;;;;;;;;;;;;5048095;28;1469;-75
2022/11/18 08:55:05;;;;;;;;;;;;;;;;;;5044748;28;1205;-76
2022/11/18 08:57:31;;;;;;;;;;;;;;;;;;5052257;28;1334;-75
2022/11/18 08:59:57;;;;;;;;;;;;;;;;;;5041999;28;1483;-75
2022/11/18 09:02:25;;;;;;;;;;;;;;;;;;5050178;28;1412;-75
2022/11/18 09:04:52;;;;;;;;;;;;;;;;;;5047456;28;1397;-77
2022/11/18 09:07:18;;;;;;;;;;;;;;;;;;5051864;28;1445;-75
2022/11/18 09:09:44;;;;;;;;;;;;;;;;;;5044028;28;1141;-75
2022/11/18 09:12:13;;;;;;;;;;;;;;;;;;5042914;28;1991;-76
2022/11/18 09:14:41;;;;;;;;;;;;;;;;;;5050941;28;1410;-74
2022/11/18 09:17:07;;;;;;;;;;;;;;;;;;5052245;28;1301;-75
2022/11/18 09:19:34;;;;;;;;;;;;;;;;;;5051895;28;978;-75
2022/11/18 09:22:00;;;;;;;;;;;;;;;;;;5049020;28;1683;-75
2022/11/18 09:24:27;;;;;;;;;;;;;;;;;;5049539;28;1451;-75
2022/11/18 09:26:53;;;;;;;;;;;;;;;;;;5044541;28;1933;-74
2022/11/18 09:29:24;;;;;;;;;;;;;;;;;;5049970;28;919;-74
2022/11/18 09:31:50;;;;;;;;;;;;;;;;;;5050719;28;1914;-75
2022/11/18 09:34:16;;;;;;;;;;;;;;;;;;5052141;28;773;-74
2022/11/18 09:36:44;;;;;;;;;;;;;;;;;;5050858;28;1157;-75
2022/11/18 09:39:10;;;;;;;;;;;;;;;;;;5042989;28;1470;-76
2022/11/18 09:41:40;;;;;;;;;;;;;;;;;;5050419;28;1268;-74
2022/11/18 09:44:08;;;;;;;;;;;;;;;;;;5051538;28;1060;-75
2022/11/18 09:46:38;;;;;;;;;;;;;;;;;;5050197;28;1272;-75
2022/11/18 09:49:14;;;;;;;;;;;;;;;;;;5042645;28;1434;-75
2022/11/18 09:51:41;;;;;;;;;;;;;;;;;;5051365;28;2017;-76
2022/11/18 09:54:11;;;;;;;;;;;;;;;;;;5052027;28;1055;-75
2022/11/18 09:56:38;;;;;;;;;;;;;;;;;;5040817;28;1449;-75
2022/11/18 09:59:04;;;;;;;;;;;;;;;;;;5051018;28;1507;-73
2022/11/18 10:01:30;;;;;;;;;;;;;;;;;;5050669;28;1126;-75
2022/11/18 10:03:57;;;;;;;;;;;;;;;;;;5042269;28;1710;-75
2022/11/18 10:06:24;;;;;;;;;;;;;;;;;;5051646;28;1212;-76
2022/11/18 10:08:57;;;;;;;;;;;;;;;;;;5049665;28;1518;-75
2022/11/18 10:11:24;;;;;;;;;;;;;;;;;;5071619;23;3565;-75
2022/11/18 10:13:54;;;;;;;;;;;;;;;;;;5073234;28;1141;-75
2022/11/18 10:16:27;;;;;;;;;;;;;;;;;;5069717;28;1388;-75
2022/11/18 10:18:54;;;;;;;;;;;;;;;;;;5050826;28;1446;-75
2022/11/18 10:21:22;;;;;;;;;;;;;;;;;;5062380;28;1421;-74
2022/11/18 10:23:51;;;;;;;;;;;;;;;;;;5069033;28;1417;-76
2022/11/18 10:26:30;;;;;;;;;;;;;;;;;;5063899;28;1380;-76
2022/11/18 10:28:57;;;;;;;;;;;;;;;;;;5062000;28;1606;-75
2022/11/18 10:31:23;;;;;;;;;;;;;;;;;;5053081;28;1914;-77
2022/11/18 10:33:50;;;;;;;;;;;;;;;;;;5071888;28;1396;-76
2022/11/18 10:36:25;;;;;;;;;;;;;;;;;;5058373;28;1397;-77
2022/11/18 10:39:03;;;;;;;;;;;;;;;;;;5075779;28;1048;-76
2022/11/18 10:41:31;;;;;;;;;;;;;;;;;;5068989;28;1478;-75
2022/11/18 10:43:58;;;;;;;;;;;;;;;;;;5072335;28;1522;-75
2022/11/18 10:46:25;;;;;;;;;;;;;;;;;;5057934;28;1156;-76
2022/11/18 10:49:11;;;;;;;;;;;;;;;;;;5073592;28;1421;-75
2022/11/18 10:51:38;;;;;;;;;;;;;;;;;;5050699;28;1969;-75
2022/11/18 10:54:06;;;;;;;;;;;;;;;;;;5056761;28;1194;-76
2022/11/18 10:56:39;;;;;;;;;;;;;;;;;;5070751;28;1467;-75
2022/11/18 10:59:05;;;;;;;;;;;;;;;;;;5073166;28;1051;-75
2022/11/18 11:01:31;;;;;;;;;;;;;;;;;;5073921;28;1375;-75
2022/11/18 11:03:59;;;;;;;;;;;;;;;;;;5075173;28;1055;-76
2022/11/18 11:06:30;;;;;;;;;;;;;;;;;;5070022;28;1404;-75
2022/11/18 11:08:57;;;;;;;;;;;;;;;;;;5067627;28;1392;-76
2022/11/18 11:11:25;;;;;;;;;;;;;;;;;;5076747;28;1965;-77
2022/11/18 11:13:53;;;;;;;;;;;;;;;;;;5057449;28;1612;-77
2022/11/18 11:16:19;;;;;;;;;;;;;;;;;;5074647;28;1394;-77
2022/11/18 11:18:52;;;;;;;;;;;;;;;;;;5075409;28;1094;-75
2022/11/18 11:21:19;;;;;;;;;;;;;;;;;;5074851;28;1397;-75
2022/11/18 11:23:45;;;;;;;;;;;;;;;;;;5075293;28;1056;-76
2022/11/18 11:26:12;;;;;;;;;;;;;;;;;;5075093;28;1043;-76
2022/11/18 11:28:40;;;;;;;;;;;;;;;;;;5057756;28;1073;-77
2022/11/18 11:31:10;;;;;;;;;;;;;;;;;;5075394;28;1963;-77
2022/11/18 11:33:37;;;;;;;;;;;;;;;;;;5074331;28;1055;-77
2022/11/18 11:36:08;;;;;;;;;;;;;;;;;;5076123;28;851;-77
2022/11/18 11:38:35;;;;;;;;;;;;;;;;;;5075131;28;952;-77
2022/11/18 11:41:03;;;;;;;;;;;;;;;;;;5072679;28;1393;-77
2022/11/18 11:43:35;;;;;;;;;;;;;;;;;;5073190;28;1396;-77
2022/11/18 11:46:09;;;;;;;;;;;;;;;;;;5056836;28;1228;-77
2022/11/18 11:48:38;;;;;;;;;;;;;;;;;;5074270;28;1387;-76
2022/11/18 11:51:06;;;;;;;;;;;;;;;;;;5054365;28;1906;-77
2022/11/18 11:53:53;;;;;;;;;;;;;;;;;;5076196;28;1115;-77
2022/11/18 11:56:20;;;;;;;;;;;;;;;;;;5070221;28;1457;-77
2022/11/18 11:58:52;;;;;;;;;;;;;;;;;;5073558;28;1429;-78
2022/11/18 12:01:22;;;;;;;;;;;;;;;;;;5075107;28;1384;-75
2022/11/18 12:03:50;;;;;;;;;;;;;;;;;;5075585;28;1071;-77
2022/11/18 12:06:16;;;;;;;;;;;;;;;;;;5076258;28;1964;-78
2022/11/18 12:08:48;;;;;;;;;;;;;;;;;;5072136;28;2112;-77
2022/11/18 12:11:15;;;;;;;;;;;;;;;;;;5056116;28;1969;-77
2022/11/18 12:13:42;;;;;;;;;;;;;;;;;;5078749;28;1482;-79
2022/11/18 12:16:15;;;;;;;;;;;;;;;;;;5077801;28;1118;-79
2022/11/18 12:18:43;;;;;;;;;;;;;;;;;;5077664;28;1871;-80
2022/11/18 12:21:10;;;;;;;;;;;;;;;;;;5063127;28;1379;-79
2022/11/18 12:23:36;;;;;;;;;;;;;;;;;;5079428;28;851;-80
2022/11/18 12:26:03;;;;;;;;;;;;;;;;;;5078733;28;1454;-79
2022/11/18 12:28:31;;;;;;;;;;;;;;;;;;5069697;28;1004;-79
2022/11/18 12:31:16;;;;;;;;;;;;;;;;;;5080241;28;1462;-79
2022/11/18 12:33:44;;;;;;;;;;;;;;;;;;5078896;28;1189;-80
2022/11/18 12:36:10;;;;;;;;;;;;;;;;;;5060157;28;1414;-79
2022/11/18 12:38:36;;;;;;;;;;;;;;;;;;5080197;28;1174;-78
2022/11/18 12:43:45;;;;;;;;;;;;;;;;;;5076647;28;1339;-78
2022/11/18 12:44:03;;;;;;;;;;;;;;;;;;5078365;28;2034;-78
2022/11/18 12:46:50;;;;;;;;;;;;;;;;;;5072020;28;1185;-78
2022/11/18 12:49:35;;;;;;;;;;;;;;;;;;5078783;28;1152;-76
2022/11/18 12:52:03;;;;;;;;;;;;;;;;;;5072425;28;1906;-75
2022/11/18 12:54:31;;;;;;;;;;;;;;;;;;5050224;28;1746;-76
2022/11/18 12:56:58;;;;;;;;;;;;;;;;;;5071448;28;1424;-76
2022/11/18 12:59:28;;;;;;;;;;;;;;;;;;5072438;28;1272;-76
2022/11/18 13:02:01;;;;;;;;;;;;;;;;;;5054327;28;1411;-76
2022/11/18 13:04:27;;;;;;;;;;;;;;;;;;5066173;28;1433;-77
2022/11/18 13:06:55;;;;;;;;;;;;;;;;;;5076275;28;1137;-76
2022/11/18 13:09:23;;;;;;;;;;;;;;;;;;5055186;28;1431;-78
2022/11/18 13:11:50;;;;;;;;;;;;;;;;;;5063775;28;1985;-76
2022/11/18 13:19:54;;;;;;;;;;;;;;;;;;5075968;28;1413;-77
2022/11/18 13:25:20;;;;;;;;;;;;;;;;;;5056338;28;1359;-77
2022/11/18 13:27:47;;;;;;;;;;;;;;;;;;5067529;28;1115;-76
2022/11/18 13:30:14;;;;;;;;;;;;;;;;;;5072102;28;1631;-76
2022/11/18 13:32:42;;;;;;;;;;;;;;;;;;5071992;28;1914;-76
2022/11/18 13:35:10;;;;;;;;;;;;;;;;;;5068032;28;1412;-76
2022/11/18 13:37:37;;;;;;;;;;;;;;;;;;5063310;28;1497;-75
2022/11/18 13:40:03;;;;;;;;;;;;;;;;;;5049958;28;1495;-75
2022/11/18 13:42:31;;;;;;;;;;;;;;;;;;5051119;28;1593;-76
2022/11/18 13:44:58;;;;;;;;;;;;;;;;;;5071081;28;1216;-75
2022/11/18 13:47:26;;;;;;;;;;;;;;;;;;5071005;28;1084;-76
2022/11/18 13:49:54;;;;;;;;;;;;;;;;;;5053344;28;1314;-76
2022/11/18 13:52:23;;;;;;;;;;;;;;;;;;5051483;28;1976;-74
2022/11/18 13:54:49;;;;;;;;;;;;;;;;;;5065553;28;1415;-76
2022/11/18 13:57:16;;;;;;;;;;;;;;;;;;5067585;28;1183;-76
2022/11/18 13:59:44;;;;;;;;;;;;;;;;;;5051194;28;1438;-75
2022/11/18 14:02:11;;;;;;;;;;;;;;;;;;5065510;28;1362;-75
2022/11/18 14:04:37;;;;;;;;;;;;;;;;;;5040627;28;1978;-74
2022/11/18 14:07:16;;;;;;;;;;;;;;;;;;5069569;28;1111;-76
2022/11/18 14:09:52;;;;;;;;;;;;;;;;;;5071082;28;1339;-75
2022/11/18 14:12:21;;;;;;;;;;;;;;;;;;5050477;28;1981;-76
2022/11/18 14:14:49;;;;;;;;;;;;;;;;;;5071217;28;1177;-75
2022/11/18 14:17:17;;;;;;;;;;;;;;;;;;5070791;28;1387;-77
2022/11/18 14:19:43;;;;;;;;;;;;;;;;;;5061573;28;1391;-80
2022/11/18 14:22:11;;;;;;;;;;;;;;;;;;5073344;28;1044;-78
2022/11/18 14:24:38;;;;;;;;;;;;;;;;;;5045431;28;1392;-75
2022/11/18 14:27:19;;;;;;;;;;;;;;;;;;5066998;28;1455;-78
2022/11/18 14:29:50;;;;;;;;;;;;;;;;;;5050275;28;1486;-78
2022/11/18 14:32:16;;;;;;;;;;;;;;;;;;5071521;28;1894;-78
2022/11/18 14:34:42;;;;;;;;;;;;;;;;;;5063438;28;1477;-78
2022/11/18 14:37:09;;;;;;;;;;;;;;;;;;5059922;28;1405;-78
2022/11/18 14:39:36;;;;;;;;;;;;;;;;;;5072474;28;1455;-77
2022/11/18 14:42:04;;;;;;;;;;;;;;;;;;5071043;28;1620;-77
2022/11/18 14:44:30;;;;;;;;;;;;;;;;;;5069058;28;1005;-77
2022/11/18 14:46:58;;;;;;;;;;;;;;;;;;5057364;28;1312;-77
2022/11/18 14:49:25;;;;;;;;;;;;;;;;;;5075685;28;946;-77
2022/11/18 14:51:51;;;;;;;;;;;;;;;;;;5072198;28;1967;-77
2022/11/18 14:54:19;;;;;;;;;;;;;;;;;;5072979;28;1024;-77
2022/11/18 14:56:45;;;;;;;;;;;;;;;;;;5072804;28;762;-77
2022/11/18 14:59:11;;;;;;;;;;;;;;;;;;5072854;28;952;-77
2022/11/18 15:01:37;;;;;;;;;;;;;;;;;;5071994;28;1372;-77
2022/11/18 15:04:05;;;;;;;;;;;;;;;;;;5068450;28;1407;-80
2022/11/18 15:06:31;;;;;;;;;;;;;;;;;;5076406;28;1076;-79
2022/11/18 15:08:57;;;;;;;;;;;;;;;;;;5073283;28;1076;-77
2022/11/18 15:11:24;;;;;;;;;;;;;;;;;;5062613;28;1353;-77
2022/11/18 15:13:50;;;;;;;;;;;;;;;;;;5071650;28;2037;-77
2022/11/18 15:16:17;;;;;;;;;;;;;;;;;;5071645;28;1060;-77
2022/11/18 15:18:43;;;;;;;;;;;;;;;;;;5070349;28;1407;-78
2022/11/18 15:21:11;;;;;;;;;;;;;;;;;;5072792;28;1565;-77
2022/11/18 15:23:37;;;;;;;;;;;;;;;;;;5075071;28;2281;-78
2022/11/18 15:26:06;;;;;;;;;;;;;;;;;;5069588;28;1162;-77
2022/11/18 15:28:32;;;;;;;;;;;;;;;;;;5070423;28;1707;-76
2022/11/18 15:30:58;;;;;;;;;;;;;;;;;;5052601;28;1755;-77
2022/11/18 15:33:25;;;;;;;;;;;;;;;;;;5057957;28;1910;-77
2022/11/18 15:35:51;;;;;;;;;;;;;;;;;;5059718;28;1435;-77
2022/11/18 15:38:18;;;;;;;;;;;;;;;;;;5069721;28;1150;-78
2022/11/18 15:40:44;;;;;;;;;;;;;;;;;;5041517;28;1426;-77
2022/11/18 15:43:11;;;;;;;;;;;;;;;;;;5052663;28;1144;-76
2022/11/18 15:45:37;;;;;;;;;;;;;;;;;;5065287;28;1412;-78
2022/11/18 15:48:03;;;;;;;;;;;;;;;;;;5077871;28;1221;-78
2022/11/18 15:50:29;;;;;;;;;;;;;;;;;;5075656;28;1333;-76
2022/11/18 15:52:56;;;;;;;;;;;;;;;;;;5074286;28;1918;-77
2022/11/18 15:55:23;;;;;;;;;;;;;;;;;;5055812;28;1375;-77
2022/11/18 15:57:50;;;;;;;;;;;;;;;;;;5075483;28;1213;-78
2022/11/18 16:00:16;;;;;;;;;;;;;;;;;;5057979;28;1408;-77
2022/11/18 16:02:42;;;;;;;;;;;;;;;;;;5075347;28;1076;-77
2022/11/18 16:05:09;;;;;;;;;;;;;;;;;;5059144;28;1305;-77
2022/11/18 16:07:36;;;;;;;;;;;;;;;;;;5058917;28;1475;-79
2022/11/18 16:12:47;;;;;;;;;;;;;;;;;;5076129;28;1973;-80
2022/11/18 16:17:57;;;;;;;;;;;;;;;;;;5078662;28;989;-80
2022/11/18 16:20:23;;;;;;;;;;;;;;;;;;5078865;28;1312;-79
2022/11/18 16:22:50;;;;;;;;;;;;;;;;;;5075424;28;1435;-80
2022/11/18 16:27:57;;;;;;;;;;;;;;;;;;5041696;28;1421;-74
2022/11/18 16:33:08;;;;;;;;;;;;;;;;;;5047299;28;1910;-74
2022/11/18 16:35:34;;;;;;;;;;;;;;;;;;5013056;28;1324;-72
2022/11/18 16:38:00;;;;;;;;;;;;;;;;;;5026456;28;1794;-73
2022/11/18 16:40:27;;;;;;;;;;;;;;;;;;4994777;28;1542;-73
2022/11/18 16:42:53;;;;;;;;;;;;;;;;;;5006089;28;1334;-73
2022/11/18 16:45:21;;;;;;;;;;;;;;;;;;5012488;28;1368;-73
2022/11/18 16:47:47;;;;;;;;;;;;;;;;;;5012494;28;1104;-73
2022/11/18 16:50:13;;;;;;;;;;;;;;;;;;5013205;28;965;-74
2022/11/18 16:52:39;;;;;;;;;;;;;;;;;;5011942;28;1895;-74
2022/11/18 16:55:06;;;;;;;;;;;;;;;;;;5012744;28;1057;-76
2022/11/18 16:57:32;;;;;;;;;;;;;;;;;;5010734;28;1411;-75
2022/11/18 16:59:58;;;;;;;;;;;;;;;;;;5014452;28;1644;-74
2022/11/18 17:02:26;;;;;;;;;;;;;;;;;;5003095;28;1429;-74
2022/11/18 17:04:52;;;;;;;;;;;;;;;;;;5013402;28;1184;-72
2022/11/18 17:07:18;;;;;;;;;;;;;;;;;;4992712;28;1357;-75
2022/11/18 17:09:44;;;;;;;;;;;;;;;;;;4993006;28;859;-75
2022/11/18 17:12:10;;;;;;;;;;;;;;;;;;4992954;28;1128;-75
2022/11/18 17:14:38;;;;;;;;;;;;;;;;;;4993298;28;1973;-75
2022/11/18 17:17:05;;;;;;;;;;;;;;;;;;5007514;28;1290;-75
2022/11/18 17:19:32;;;;;;;;;;;;;;;;;;4991799;28;1060;-75
2022/11/18 17:21:58;;;;;;;;;;;;;;;;;;4990827;28;965;-75
2022/11/18 17:24:25;;;;;;;;;;;;;;;;;;5007828;28;1291;-74
2022/11/18 17:26:52;;;;;;;;;;;;;;;;;;4993340;28;1289;-75
2022/11/18 17:29:18;;;;;;;;;;;;;;;;;;4993191;28;961;-75
2022/11/18 17:31:44;;;;;;;;;;;;;;;;;;4992391;28;1076;-75
2022/11/18 17:34:11;;;;;;;;;;;;;;;;;;5008002;28;1965;-74
2022/11/18 17:36:39;;;;;;;;;;;;;;;;;;4992894;28;1285;-75
2022/11/18 17:39:05;;;;;;;;;;;;;;;;;;4992876;28;1052;-74
2022/11/18 17:44:13;;;;;;;;;;;;;;;;;;5002887;28;1188;-74